sensor_id;sensor_type;location;lat;lon;timestamp;temperature;humidity
13585;DHT22;6863;48.402;9.994;2023-07-29T00:01:25;15.50;99.90
13585;DHT22;6863;48.402;9.994;2023-07-29T00:03:51;15.50;99.90
13585;DHT22;6863;48.402;9.994;2023-07-29T00:06:16;15.40;99.90
13585;DHT22;6863;48.402;9.994;2023-07-29T00:08:42;15.40;99.90
13585;DHT22;6863;48.402;9.994;2023-07-29T00:11:08;15.40;99.90
13585;DHT22;6863;48.402;9.994;2023-07-29T00:13:33;15.30;99.90
13585;DHT22;6863;48.402;9.994;2023-07-29T00:15:59;15.30;99.90
13585;DHT22;6863;48.402;9.994;2023-07-29T00:18:24;15.30;99.90
13585;DHT22;6863;48.402;9.994;2023-07-29T00:20:50;15.30;99.90
13585;DHT22;6863;48.402;9.994;2023-07-29T00:23:17;15.20;99.90
13585;DHT22;6863;48.402;9.994;2023-07-29T00:25:44;15.30;99.90
13585;DHT22;6863;48.402;9.994;2023-07-29T00:28:11;15.40;99.90
13585;DHT22;6863;48.402;9.994;2023-07-29T00:30:37;15.40;99.90
13585;DHT22;6863;48.402;9.994;2023-07-29T00:33:03;15.40;99.90
13585;DHT22;6863;48.402;9.994;2023-07-29T00:35:28;15.30;99.90
13585;DHT22;6863;48.402;9.994;2023-07-29T00:37:54;15.30;99.90
13585;DHT22;6863;48.402;9.994;2023-07-29T00:40:21;15.30;99.90
13585;DHT22;6863;48.402;9.994;2023-07-29T00:42:47;15.30;99.90
13585;DHT22;6863;48.402;9.994;2023-07-29T00:45:13;15.30;99.90
13585;DHT22;6863;48.402;9.994;2023-07-29T00:47:39;15.20;99.90
13585;DHT22;6863;48.402;9.994;2023-07-29T00:50:06;15.20;99.90
13585;DHT22;6863;48.402;9.994;2023-07-29T00:52:32;15.20;99.90
13585;DHT22;6863;48.402;9.994;2023-07-29T00:54:58;15.10;99.90
13585;DHT22;6863;48.402;9.994;2023-07-29T00:57:25;15.10;99.90
13585;DHT22;6863;48.402;9.994;2023-07-29T00:59:51;15.00;99.90
13585;DHT22;6863;48.402;9.994;2023-07-29T01:02:17;15.00;99.90
13585;DHT22;6863;48.402;9.994;2023-07-29T01:04:43;15.10;99.90
13585;DHT22;6863;48.402;9.994;2023-07-29T01:07:30;15.10;99.90
13585;DHT22;6863;48.402;9.994;2023-07-29T01:10:07;15.00;99.90
13585;DHT22;6863;48.402;9.994;2023-07-29T01:12:53;15.10;99.90
13585;DHT22;6863;48.402;9.994;2023-07-29T01:15:27;15.10;99.90
13585;DHT22;6863;48.402;9.994;2023-07-29T01:17:56;15.20;99.90
13585;DHT22;6863;48.402;9.994;2023-07-29T01:20:25;15.20;99.90
13585;DHT22;6863;48.402;9.994;2023-07-29T01:22:51;15.30;99.90
13585;DHT22;6863;48.402;9.994;2023-07-29T01:25:17;15.30;99.90
13585;DHT22;6863;48.402;9.994;2023-07-29T01:27:45;15.30;99.90
13585;DHT22;6863;48.402;9.994;2023-07-29T01:30:11;15.40;99.90
13585;DHT22;6863;48.402;9.994;2023-07-29T01:35:28;15.40;99.90
13585;DHT22;6863;48.402;9.994;2023-07-29T01:38:01;15.50;99.90
13585;DHT22;6863;48.402;9.994;2023-07-29T01:40:27;15.50;99.90
13585;DHT22;6863;48.402;9.994;2023-07-29T01:42:54;15.40;99.90
13585;DHT22;6863;48.402;9.994;2023-07-29T01:45:23;15.40;99.90
13585;DHT22;6863;48.402;9.994;2023-07-29T01:47:49;15.30;99.90
13585;DHT22;6863;48.402;9.994;2023-07-29T01:50:14;15.40;99.90
13585;DHT22;6863;48.402;9.994;2023-07-29T01:52:40;15.40;99.90
13585;DHT22;6863;48.402;9.994;2023-07-29T01:55:06;15.40;99.90
13585;DHT22;6863;48.402;9.994;2023-07-29T01:57:31;15.40;99.90
13585;DHT22;6863;48.402;9.994;2023-07-29T01:59:57;15.40;99.90
13585;DHT22;6863;48.402;9.994;2023-07-29T02:02:22;15.40;99.90
13585;DHT22;6863;48.402;9.994;2023-07-29T02:04:48;15.40;99.90
13585;DHT22;6863;48.402;9.994;2023-07-29T02:07:17;15.40;99.90
13585;DHT22;6863;48.402;9.994;2023-07-29T02:09:43;15.50;99.90
13585;DHT22;6863;48.402;9.994;2023-07-29T02:12:12;15.50;99.90
13585;DHT22;6863;48.402;9.994;2023-07-29T02:14:37;15.50;99.90
13585;DHT22;6863;48.402;9.994;2023-07-29T02:17:03;15.50;99.90
13585;DHT22;6863;48.402;9.994;2023-07-29T02:19:28;15.60;99.90
13585;DHT22;6863;48.402;9.994;2023-07-29T02:21:54;15.60;99.90
13585;DHT22;6863;48.402;9.994;2023-07-29T02:24:19;15.60;99.90
13585;DHT22;6863;48.402;9.994;2023-07-29T02:26:45;15.70;99.90
13585;DHT22;6863;48.402;9.994;2023-07-29T02:29:11;15.60;99.90
13585;DHT22;6863;48.402;9.994;2023-07-29T02:31:36;15.60;99.90
13585;DHT22;6863;48.402;9.994;2023-07-29T02:34:03;15.50;99.90
13585;DHT22;6863;48.402;9.994;2023-07-29T02:36:29;15.50;99.90
13585;DHT22;6863;48.402;9.994;2023-07-29T02:38:54;15.40;99.90
13585;DHT22;6863;48.402;9.994;2023-07-29T02:41:20;15.40;99.90
13585;DHT22;6863;48.402;9.994;2023-07-29T02:43:49;15.30;99.90
13585;DHT22;6863;48.402;9.994;2023-07-29T02:46:16;15.30;99.90
13585;DHT22;6863;48.402;9.994;2023-07-29T02:48:42;15.20;99.90
13585;DHT22;6863;48.402;9.994;2023-07-29T02:51:08;15.20;99.90
13585;DHT22;6863;48.402;9.994;2023-07-29T02:53:33;15.10;99.90
13585;DHT22;6863;48.402;9.994;2023-07-29T02:55:59;15.30;99.90
13585;DHT22;6863;48.402;9.994;2023-07-29T02:58:24;15.20;99.90
13585;DHT22;6863;48.402;9.994;2023-07-29T03:00:51;15.20;99.90
13585;DHT22;6863;48.402;9.994;2023-07-29T03:03:17;15.20;99.90
13585;DHT22;6863;48.402;9.994;2023-07-29T03:05:44;15.20;99.90
13585;DHT22;6863;48.402;9.994;2023-07-29T03:08:09;15.20;99.90
13585;DHT22;6863;48.402;9.994;2023-07-29T03:10:35;15.10;99.90
13585;DHT22;6863;48.402;9.994;2023-07-29T03:13:01;15.20;99.90
13585;DHT22;6863;48.402;9.994;2023-07-29T03:15:27;15.10;99.90
13585;DHT22;6863;48.402;9.994;2023-07-29T03:17:53;15.10;99.90
13585;DHT22;6863;48.402;9.994;2023-07-29T03:20:19;15.10;99.90
13585;DHT22;6863;48.402;9.994;2023-07-29T03:22:45;15.10;99.90
13585;DHT22;6863;48.402;9.994;2023-07-29T03:25:11;15.20;99.90
13585;DHT22;6863;48.402;9.994;2023-07-29T03:27:36;15.20;99.90
13585;DHT22;6863;48.402;9.994;2023-07-29T03:30:06;15.20;99.90
13585;DHT22;6863;48.402;9.994;2023-07-29T03:32:32;15.20;99.90
13585;DHT22;6863;48.402;9.994;2023-07-29T03:34:58;15.30;99.90
13585;DHT22;6863;48.402;9.994;2023-07-29T03:37:24;15.30;99.90
13585;DHT22;6863;48.402;9.994;2023-07-29T03:39:49;15.40;99.90
13585;DHT22;6863;48.402;9.994;2023-07-29T03:42:17;15.30;99.90
13585;DHT22;6863;48.402;9.994;2023-07-29T03:44:43;15.30;99.90
13585;DHT22;6863;48.402;9.994;2023-07-29T03:47:08;15.30;99.90
13585;DHT22;6863;48.402;9.994;2023-07-29T03:49:34;15.30;99.90
13585;DHT22;6863;48.402;9.994;2023-07-29T03:51:59;15.30;99.90
13585;DHT22;6863;48.402;9.994;2023-07-29T03:54:25;15.40;99.90
13585;DHT22;6863;48.402;9.994;2023-07-29T03:56:51;15.40;99.90
13585;DHT22;6863;48.402;9.994;2023-07-29T04:01:45;15.40;99.90
13585;DHT22;6863;48.402;9.994;2023-07-29T04:04:11;15.40;99.90
13585;DHT22;6863;48.402;9.994;2023-07-29T04:06:36;15.50;99.90
13585;DHT22;6863;48.402;9.994;2023-07-29T04:09:02;15.50;99.90
13585;DHT22;6863;48.402;9.994;2023-07-29T04:11:27;15.50;99.90
13585;DHT22;6863;48.402;9.994;2023-07-29T04:13:53;15.50;99.90
13585;DHT22;6863;48.402;9.994;2023-07-29T04:16:19;15.50;99.90
13585;DHT22;6863;48.402;9.994;2023-07-29T04:18:44;15.50;99.90
13585;DHT22;6863;48.402;9.994;2023-07-29T04:21:10;15.50;99.90
13585;DHT22;6863;48.402;9.994;2023-07-29T04:23:36;15.60;99.90
13585;DHT22;6863;48.402;9.994;2023-07-29T04:26:01;15.60;99.90
13585;DHT22;6863;48.402;9.994;2023-07-29T04:28:27;15.50;99.90
13585;DHT22;6863;48.402;9.994;2023-07-29T04:30:52;15.50;99.90
13585;DHT22;6863;48.402;9.994;2023-07-29T04:33:18;15.50;99.90
13585;DHT22;6863;48.402;9.994;2023-07-29T04:35:44;15.60;99.90
13585;DHT22;6863;48.402;9.994;2023-07-29T04:38:09;15.60;99.90
13585;DHT22;6863;48.402;9.994;2023-07-29T04:40:35;15.60;99.90
13585;DHT22;6863;48.402;9.994;2023-07-29T04:43:01;15.50;99.90
13585;DHT22;6863;48.402;9.994;2023-07-29T04:45:30;15.50;99.90
13585;DHT22;6863;48.402;9.994;2023-07-29T04:47:56;15.50;99.90
13585;DHT22;6863;48.402;9.994;2023-07-29T04:50:22;15.50;99.90
13585;DHT22;6863;48.402;9.994;2023-07-29T04:52:47;15.60;99.90
13585;DHT22;6863;48.402;9.994;2023-07-29T04:55:13;15.60;99.90
13585;DHT22;6863;48.402;9.994;2023-07-29T04:57:39;15.60;99.90
13585;DHT22;6863;48.402;9.994;2023-07-29T05:00:04;15.70;99.90
13585;DHT22;6863;48.402;9.994;2023-07-29T05:02:30;15.80;99.90
13585;DHT22;6863;48.402;9.994;2023-07-29T05:04:56;15.90;99.90
13585;DHT22;6863;48.402;9.994;2023-07-29T05:07:21;16.00;99.90
13585;DHT22;6863;48.402;9.994;2023-07-29T05:09:47;16.10;99.90
13585;DHT22;6863;48.402;9.994;2023-07-29T05:12:13;16.20;99.90
13585;DHT22;6863;48.402;9.994;2023-07-29T05:14:38;16.40;99.90
13585;DHT22;6863;48.402;9.994;2023-07-29T05:17:05;16.50;99.90
13585;DHT22;6863;48.402;9.994;2023-07-29T05:19:30;16.80;99.90
13585;DHT22;6863;48.402;9.994;2023-07-29T05:21:56;16.90;99.90
13585;DHT22;6863;48.402;9.994;2023-07-29T05:24:23;16.80;99.90
13585;DHT22;6863;48.402;9.994;2023-07-29T05:26:49;16.90;99.90
13585;DHT22;6863;48.402;9.994;2023-07-29T05:29:14;16.90;99.90
13585;DHT22;6863;48.402;9.994;2023-07-29T05:31:40;17.00;99.90
13585;DHT22;6863;48.402;9.994;2023-07-29T05:34:05;17.10;99.90
13585;DHT22;6863;48.402;9.994;2023-07-29T05:36:31;17.00;99.90
13585;DHT22;6863;48.402;9.994;2023-07-29T05:38:57;17.10;99.90
13585;DHT22;6863;48.402;9.994;2023-07-29T05:41:23;17.10;99.90
13585;DHT22;6863;48.402;9.994;2023-07-29T05:43:48;17.20;99.90
13585;DHT22;6863;48.402;9.994;2023-07-29T05:46:14;17.40;99.90
13585;DHT22;6863;48.402;9.994;2023-07-29T05:48:39;17.30;99.90
13585;DHT22;6863;48.402;9.994;2023-07-29T05:51:05;17.30;99.90
13585;DHT22;6863;48.402;9.994;2023-07-29T05:53:31;17.30;99.90
13585;DHT22;6863;48.402;9.994;2023-07-29T05:55:56;17.30;99.90
13585;DHT22;6863;48.402;9.994;2023-07-29T05:58:22;17.30;99.90
13585;DHT22;6863;48.402;9.994;2023-07-29T06:00:48;17.20;99.90
13585;DHT22;6863;48.402;9.994;2023-07-29T06:03:13;17.20;99.90
13585;DHT22;6863;48.402;9.994;2023-07-29T06:05:39;17.20;99.90
13585;DHT22;6863;48.402;9.994;2023-07-29T06:08:04;17.20;99.90
13585;DHT22;6863;48.402;9.994;2023-07-29T06:10:30;17.30;99.90
13585;DHT22;6863;48.402;9.994;2023-07-29T06:12:56;17.50;99.90
13585;DHT22;6863;48.402;9.994;2023-07-29T06:15:21;17.80;99.90
13585;DHT22;6863;48.402;9.994;2023-07-29T06:17:48;18.00;99.90
13585;DHT22;6863;48.402;9.994;2023-07-29T06:20:14;18.10;99.90
13585;DHT22;6863;48.402;9.994;2023-07-29T06:22:40;18.10;99.90
13585;DHT22;6863;48.402;9.994;2023-07-29T06:25:06;18.30;99.90
13585;DHT22;6863;48.402;9.994;2023-07-29T06:27:32;18.50;99.90
13585;DHT22;6863;48.402;9.994;2023-07-29T06:29:57;18.50;99.90
13585;DHT22;6863;48.402;9.994;2023-07-29T06:32:23;18.60;99.90
13585;DHT22;6863;48.402;9.994;2023-07-29T06:34:48;18.70;99.90
13585;DHT22;6863;48.402;9.994;2023-07-29T06:37:14;18.80;99.90
13585;DHT22;6863;48.402;9.994;2023-07-29T06:39:39;18.90;99.90
13585;DHT22;6863;48.402;9.994;2023-07-29T06:42:05;19.10;99.90
13585;DHT22;6863;48.402;9.994;2023-07-29T06:44:31;19.30;99.90
13585;DHT22;6863;48.402;9.994;2023-07-29T06:46:58;19.50;99.90
13585;DHT22;6863;48.402;9.994;2023-07-29T06:49:23;19.70;99.90
13585;DHT22;6863;48.402;9.994;2023-07-29T06:51:49;20.10;99.90
13585;DHT22;6863;48.402;9.994;2023-07-29T06:54:16;20.60;99.90
13585;DHT22;6863;48.402;9.994;2023-07-29T06:56:42;20.80;99.90
13585;DHT22;6863;48.402;9.994;2023-07-29T06:59:07;20.80;99.90
13585;DHT22;6863;48.402;9.994;2023-07-29T07:01:34;20.80;99.90
13585;DHT22;6863;48.402;9.994;2023-07-29T07:03:59;20.40;99.90
13585;DHT22;6863;48.402;9.994;2023-07-29T07:06:25;20.40;99.90
13585;DHT22;6863;48.402;9.994;2023-07-29T07:08:51;20.50;99.90
13585;DHT22;6863;48.402;9.994;2023-07-29T07:11:18;20.70;99.90
13585;DHT22;6863;48.402;9.994;2023-07-29T07:13:43;21.00;99.90
13585;DHT22;6863;48.402;9.994;2023-07-29T07:16:09;21.10;99.90
13585;DHT22;6863;48.402;9.994;2023-07-29T07:18:35;21.20;99.90
13585;DHT22;6863;48.402;9.994;2023-07-29T07:21:00;21.20;99.90
13585;DHT22;6863;48.402;9.994;2023-07-29T07:23:26;21.50;99.90
13585;DHT22;6863;48.402;9.994;2023-07-29T07:25:51;21.20;99.90
13585;DHT22;6863;48.402;9.994;2023-07-29T07:28:17;21.10;99.90
13585;DHT22;6863;48.402;9.994;2023-07-29T07:30:42;20.90;99.90
13585;DHT22;6863;48.402;9.994;2023-07-29T07:33:08;21.10;99.90
13585;DHT22;6863;48.402;9.994;2023-07-29T07:35:34;21.10;99.90
13585;DHT22;6863;48.402;9.994;2023-07-29T07:37:59;21.20;99.90
13585;DHT22;6863;48.402;9.994;2023-07-29T07:40:27;21.30;99.90
13585;DHT22;6863;48.402;9.994;2023-07-29T07:42:53;21.30;99.90
13585;DHT22;6863;48.402;9.994;2023-07-29T07:45:19;21.10;99.90
13585;DHT22;6863;48.402;9.994;2023-07-29T07:47:44;21.30;99.90
13585;DHT22;6863;48.402;9.994;2023-07-29T07:50:10;21.40;99.90
13585;DHT22;6863;48.402;9.994;2023-07-29T07:52:36;21.60;99.90
13585;DHT22;6863;48.402;9.994;2023-07-29T07:55:02;21.80;99.90
13585;DHT22;6863;48.402;9.994;2023-07-29T07:57:27;22.00;99.90
13585;DHT22;6863;48.402;9.994;2023-07-29T07:59:53;22.00;99.90
13585;DHT22;6863;48.402;9.994;2023-07-29T08:02:19;22.20;99.90
13585;DHT22;6863;48.402;9.994;2023-07-29T08:04:44;22.30;99.90
13585;DHT22;6863;48.402;9.994;2023-07-29T08:07:10;22.40;99.90
13585;DHT22;6863;48.402;9.994;2023-07-29T08:09:35;22.80;99.90
13585;DHT22;6863;48.402;9.994;2023-07-29T08:12:01;23.30;99.90
13585;DHT22;6863;48.402;9.994;2023-07-29T08:14:27;23.30;99.90
13585;DHT22;6863;48.402;9.994;2023-07-29T08:16:52;22.80;99.90
13585;DHT22;6863;48.402;9.994;2023-07-29T08:19:18;22.30;99.90
13585;DHT22;6863;48.402;9.994;2023-07-29T08:21:43;22.00;99.90
13585;DHT22;6863;48.402;9.994;2023-07-29T08:24:09;22.10;99.90
13585;DHT22;6863;48.402;9.994;2023-07-29T08:26:34;22.40;99.90
13585;DHT22;6863;48.402;9.994;2023-07-29T08:29:00;22.80;99.90
13585;DHT22;6863;48.402;9.994;2023-07-29T08:31:26;23.40;99.90
13585;DHT22;6863;48.402;9.994;2023-07-29T08:33:51;23.40;99.90
13585;DHT22;6863;48.402;9.994;2023-07-29T08:36:17;23.10;99.90
13585;DHT22;6863;48.402;9.994;2023-07-29T08:38:42;22.60;99.90
13585;DHT22;6863;48.402;9.994;2023-07-29T08:41:37;22.20;99.90
13585;DHT22;6863;48.402;9.994;2023-07-29T08:44:19;21.70;99.90
13585;DHT22;6863;48.402;9.994;2023-07-29T08:46:46;21.40;99.90
13585;DHT22;6863;48.402;9.994;2023-07-29T08:49:12;21.30;99.90
13585;DHT22;6863;48.402;9.994;2023-07-29T08:51:45;21.10;99.90
13585;DHT22;6863;48.402;9.994;2023-07-29T08:54:12;21.00;99.90
13585;DHT22;6863;48.402;9.994;2023-07-29T08:56:40;20.80;99.90
13585;DHT22;6863;48.402;9.994;2023-07-29T08:59:07;20.80;99.90
13585;DHT22;6863;48.402;9.994;2023-07-29T09:01:39;20.70;99.90
13585;DHT22;6863;48.402;9.994;2023-07-29T09:04:05;20.60;99.90
13585;DHT22;6863;48.402;9.994;2023-07-29T09:06:31;20.60;99.90
13585;DHT22;6863;48.402;9.994;2023-07-29T09:08:58;20.70;99.90
13585;DHT22;6863;48.402;9.994;2023-07-29T09:11:24;21.00;99.90
13585;DHT22;6863;48.402;9.994;2023-07-29T09:13:50;21.30;99.90
13585;DHT22;6863;48.402;9.994;2023-07-29T09:16:16;21.40;99.90
13585;DHT22;6863;48.402;9.994;2023-07-29T09:18:41;21.30;99.90
13585;DHT22;6863;48.402;9.994;2023-07-29T09:21:07;21.30;99.90
13585;DHT22;6863;48.402;9.994;2023-07-29T09:23:41;21.30;99.90
13585;DHT22;6863;48.402;9.994;2023-07-29T09:26:07;21.10;99.90
13585;DHT22;6863;48.402;9.994;2023-07-29T09:28:34;21.20;99.90
13585;DHT22;6863;48.402;9.994;2023-07-29T09:31:00;21.30;99.90
13585;DHT22;6863;48.402;9.994;2023-07-29T09:33:26;21.40;99.90
13585;DHT22;6863;48.402;9.994;2023-07-29T09:35:52;21.40;99.90
13585;DHT22;6863;48.402;9.994;2023-07-29T09:38:18;21.60;99.90
13585;DHT22;6863;48.402;9.994;2023-07-29T09:40:43;21.90;99.90
13585;DHT22;6863;48.402;9.994;2023-07-29T09:43:12;22.00;99.90
13585;DHT22;6863;48.402;9.994;2023-07-29T09:45:37;22.30;99.90
13585;DHT22;6863;48.402;9.994;2023-07-29T09:48:04;23.40;99.90
13585;DHT22;6863;48.402;9.994;2023-07-29T09:50:35;24.20;99.90
13585;DHT22;6863;48.402;9.994;2023-07-29T09:53:01;24.50;99.90
13585;DHT22;6863;48.402;9.994;2023-07-29T09:55:28;25.00;99.90
13585;DHT22;6863;48.402;9.994;2023-07-29T09:57:58;25.60;99.90
13585;DHT22;6863;48.402;9.994;2023-07-29T10:00:30;27.20;98.90
13585;DHT22;6863;48.402;9.994;2023-07-29T10:02:57;28.90;95.10
13585;DHT22;6863;48.402;9.994;2023-07-29T10:05:25;30.10;91.50
13585;DHT22;6863;48.402;9.994;2023-07-29T10:07:54;29.70;92.90
13585;DHT22;6863;48.402;9.994;2023-07-29T10:10:20;31.00;89.80
13585;DHT22;6863;48.402;9.994;2023-07-29T10:12:46;31.10;85.60
13585;DHT22;6863;48.402;9.994;2023-07-29T10:15:12;31.50;84.20
13585;DHT22;6863;48.402;9.994;2023-07-29T10:17:39;30.80;83.30
13585;DHT22;6863;48.402;9.994;2023-07-29T10:20:07;30.70;83.10
13585;DHT22;6863;48.402;9.994;2023-07-29T10:22:36;30.50;83.70
13585;DHT22;6863;48.402;9.994;2023-07-29T10:25:08;31.30;81.90
13585;DHT22;6863;48.402;9.994;2023-07-29T10:27:48;32.20;79.50
13585;DHT22;6863;48.402;9.994;2023-07-29T10:30:14;32.60;76.10
13585;DHT22;6863;48.402;9.994;2023-07-29T10:32:44;33.60;73.10
13585;DHT22;6863;48.402;9.994;2023-07-29T10:35:14;32.70;71.80
13585;DHT22;6863;48.402;9.994;2023-07-29T10:37:41;30.90;75.70
13585;DHT22;6863;48.402;9.994;2023-07-29T10:40:09;29.20;83.00
13585;DHT22;6863;48.402;9.994;2023-07-29T10:42:35;27.80;86.00
13585;DHT22;6863;48.402;9.994;2023-07-29T10:45:17;26.70;90.10
13585;DHT22;6863;48.402;9.994;2023-07-29T10:47:43;25.10;97.80
13585;DHT22;6863;48.402;9.994;2023-07-29T10:50:20;23.40;99.90
13585;DHT22;6863;48.402;9.994;2023-07-29T10:52:50;22.40;99.90
13585;DHT22;6863;48.402;9.994;2023-07-29T10:55:33;21.50;99.90
13585;DHT22;6863;48.402;9.994;2023-07-29T10:58:11;21.40;99.90
13585;DHT22;6863;48.402;9.994;2023-07-29T11:00:38;21.70;99.90
13585;DHT22;6863;48.402;9.994;2023-07-29T11:03:08;23.70;99.90
13585;DHT22;6863;48.402;9.994;2023-07-29T11:05:48;26.10;99.20
13585;DHT22;6863;48.402;9.994;2023-07-29T11:08:23;27.70;95.80
13585;DHT22;6863;48.402;9.994;2023-07-29T11:11:12;29.20;92.40
13585;DHT22;6863;48.402;9.994;2023-07-29T11:13:38;29.60;91.10
13585;DHT22;6863;48.402;9.994;2023-07-29T11:16:05;31.00;90.10
13585;DHT22;6863;48.402;9.994;2023-07-29T11:18:33;32.90;80.60
13585;DHT22;6863;48.402;9.994;2023-07-29T11:21:02;34.20;72.80
13585;DHT22;6863;48.402;9.994;2023-07-29T11:23:33;33.70;68.60
13585;DHT22;6863;48.402;9.994;2023-07-29T11:25:59;34.40;67.20
13585;DHT22;6863;48.402;9.994;2023-07-29T11:28:25;34.50;64.90
13585;DHT22;6863;48.402;9.994;2023-07-29T11:30:51;34.60;65.10
13585;DHT22;6863;48.402;9.994;2023-07-29T11:33:39;35.60;62.20
13585;DHT22;6863;48.402;9.994;2023-07-29T11:36:04;34.40;60.50
13585;DHT22;6863;48.402;9.994;2023-07-29T11:38:30;34.70;59.60
13585;DHT22;6863;48.402;9.994;2023-07-29T11:41:02;35.00;57.80
13585;DHT22;6863;48.402;9.994;2023-07-29T11:43:28;35.10;56.60
13585;DHT22;6863;48.402;9.994;2023-07-29T11:45:54;35.40;55.40
13585;DHT22;6863;48.402;9.994;2023-07-29T11:48:31;34.40;57.10
13585;DHT22;6863;48.402;9.994;2023-07-29T11:50:57;34.60;55.40
13585;DHT22;6863;48.402;9.994;2023-07-29T11:53:26;33.60;55.50
13585;DHT22;6863;48.402;9.994;2023-07-29T11:55:52;32.40;56.70
13585;DHT22;6863;48.402;9.994;2023-07-29T11:58:18;32.10;57.60
13585;DHT22;6863;48.402;9.994;2023-07-29T12:00:44;32.60;55.90
13585;DHT22;6863;48.402;9.994;2023-07-29T12:03:11;33.00;55.80
13585;DHT22;6863;48.402;9.994;2023-07-29T12:05:37;34.00;54.00
13585;DHT22;6863;48.402;9.994;2023-07-29T12:08:03;33.80;53.10
13585;DHT22;6863;48.402;9.994;2023-07-29T12:10:29;34.30;51.60
13585;DHT22;6863;48.402;9.994;2023-07-29T12:12:55;35.90;48.80
13585;DHT22;6863;48.402;9.994;2023-07-29T12:15:28;36.20;47.70
13585;DHT22;6863;48.402;9.994;2023-07-29T12:17:55;35.40;48.50
13585;DHT22;6863;48.402;9.994;2023-07-29T12:20:21;34.80;48.90
13585;DHT22;6863;48.402;9.994;2023-07-29T12:22:55;34.50;49.90
13585;DHT22;6863;48.402;9.994;2023-07-29T12:25:21;33.20;51.90
13585;DHT22;6863;48.402;9.994;2023-07-29T12:27:47;32.90;53.80
13585;DHT22;6863;48.402;9.994;2023-07-29T12:30:13;33.90;52.40
13585;DHT22;6863;48.402;9.994;2023-07-29T12:32:45;36.30;48.60
13585;DHT22;6863;48.402;9.994;2023-07-29T12:35:11;37.60;44.30
13585;DHT22;6863;48.402;9.994;2023-07-29T12:37:37;37.70;43.40
13585;DHT22;6863;48.402;9.994;2023-07-29T12:40:04;37.00;44.80
13585;DHT22;6863;48.402;9.994;2023-07-29T12:42:30;36.90;44.30
13585;DHT22;6863;48.402;9.994;2023-07-29T12:44:56;35.80;45.80
13585;DHT22;6863;48.402;9.994;2023-07-29T12:47:21;35.00;46.60
13585;DHT22;6863;48.402;9.994;2023-07-29T12:49:47;34.60;47.50
13585;DHT22;6863;48.402;9.994;2023-07-29T12:52:12;34.50;47.70
13585;DHT22;6863;48.402;9.994;2023-07-29T12:54:38;36.90;44.60
13585;DHT22;6863;48.402;9.994;2023-07-29T12:57:06;38.00;42.30
13585;DHT22;6863;48.402;9.994;2023-07-29T12:59:31;37.80;42.30
13585;DHT22;6863;48.402;9.994;2023-07-29T13:01:57;36.70;43.20
13585;DHT22;6863;48.402;9.994;2023-07-29T13:04:22;35.30;46.00
13585;DHT22;6863;48.402;9.994;2023-07-29T13:06:48;35.20;46.50
13585;DHT22;6863;48.402;9.994;2023-07-29T13:09:14;35.30;45.90
13585;DHT22;6863;48.402;9.994;2023-07-29T13:11:39;35.50;45.90
13585;DHT22;6863;48.402;9.994;2023-07-29T13:14:05;35.70;46.00
13585;DHT22;6863;48.402;9.994;2023-07-29T13:16:34;35.60;43.60
13585;DHT22;6863;48.402;9.994;2023-07-29T13:18:59;34.80;45.30
13585;DHT22;6863;48.402;9.994;2023-07-29T13:21:25;34.30;46.40
13585;DHT22;6863;48.402;9.994;2023-07-29T13:23:51;34.30;45.70
13585;DHT22;6863;48.402;9.994;2023-07-29T13:26:17;33.90;46.30
13585;DHT22;6863;48.402;9.994;2023-07-29T13:28:42;34.00;46.50
13585;DHT22;6863;48.402;9.994;2023-07-29T13:31:08;33.90;46.60
13585;DHT22;6863;48.402;9.994;2023-07-29T13:33:34;33.00;47.80
13585;DHT22;6863;48.402;9.994;2023-07-29T13:36:00;32.00;49.30
13585;DHT22;6863;48.402;9.994;2023-07-29T13:38:28;31.50;50.90
13585;DHT22;6863;48.402;9.994;2023-07-29T13:40:54;31.50;51.30
13585;DHT22;6863;48.402;9.994;2023-07-29T13:43:20;31.70;51.30
13585;DHT22;6863;48.402;9.994;2023-07-29T13:45:45;31.50;51.60
13585;DHT22;6863;48.402;9.994;2023-07-29T13:48:14;31.40;52.20
13585;DHT22;6863;48.402;9.994;2023-07-29T13:50:39;31.70;52.50
13585;DHT22;6863;48.402;9.994;2023-07-29T13:53:05;31.20;51.90
13585;DHT22;6863;48.402;9.994;2023-07-29T13:55:30;30.60;53.00
13585;DHT22;6863;48.402;9.994;2023-07-29T13:57:56;29.70;54.70
13585;DHT22;6863;48.402;9.994;2023-07-29T14:00:25;29.50;55.60
13585;DHT22;6863;48.402;9.994;2023-07-29T14:02:50;29.20;56.30
13585;DHT22;6863;48.402;9.994;2023-07-29T14:05:16;28.80;56.20
13585;DHT22;6863;48.402;9.994;2023-07-29T14:07:41;28.60;57.10
13585;DHT22;6863;48.402;9.994;2023-07-29T14:10:07;28.60;58.20
13585;DHT22;6863;48.402;9.994;2023-07-29T14:12:33;29.00;57.70
13585;DHT22;6863;48.402;9.994;2023-07-29T14:14:59;29.30;56.30
13585;DHT22;6863;48.402;9.994;2023-07-29T14:17:24;29.10;57.10
13585;DHT22;6863;48.402;9.994;2023-07-29T14:19:50;28.90;57.40
13585;DHT22;6863;48.402;9.994;2023-07-29T14:22:15;29.00;57.70
13585;DHT22;6863;48.402;9.994;2023-07-29T14:24:41;29.70;56.60
13585;DHT22;6863;48.402;9.994;2023-07-29T14:27:06;29.90;55.40
13585;DHT22;6863;48.402;9.994;2023-07-29T14:29:32;29.70;56.10
13585;DHT22;6863;48.402;9.994;2023-07-29T14:31:57;29.70;56.60
13585;DHT22;6863;48.402;9.994;2023-07-29T14:34:23;29.60;56.30
13585;DHT22;6863;48.402;9.994;2023-07-29T14:36:49;29.00;57.40
13585;DHT22;6863;48.402;9.994;2023-07-29T14:39:14;29.20;58.20
13585;DHT22;6863;48.402;9.994;2023-07-29T14:41:40;29.60;57.90
13585;DHT22;6863;48.402;9.994;2023-07-29T14:44:05;29.90;56.90
13585;DHT22;6863;48.402;9.994;2023-07-29T14:46:31;30.20;56.30
13585;DHT22;6863;48.402;9.994;2023-07-29T14:48:57;30.70;55.10
13585;DHT22;6863;48.402;9.994;2023-07-29T14:51:23;30.30;54.70
13585;DHT22;6863;48.402;9.994;2023-07-29T14:53:49;30.30;55.10
13585;DHT22;6863;48.402;9.994;2023-07-29T14:56:14;30.20;55.80
13585;DHT22;6863;48.402;9.994;2023-07-29T14:58:43;31.20;54.10
13585;DHT22;6863;48.402;9.994;2023-07-29T15:01:09;31.70;52.80
13585;DHT22;6863;48.402;9.994;2023-07-29T15:03:34;31.30;53.10
13585;DHT22;6863;48.402;9.994;2023-07-29T15:06:00;30.40;54.20
13585;DHT22;6863;48.402;9.994;2023-07-29T15:08:29;29.80;55.50
13585;DHT22;6863;48.402;9.994;2023-07-29T15:10:56;29.00;57.30
13585;DHT22;6863;48.402;9.994;2023-07-29T15:13:31;28.50;57.70
13585;DHT22;6863;48.402;9.994;2023-07-29T15:15:57;28.00;58.50
13585;DHT22;6863;48.402;9.994;2023-07-29T15:18:23;27.70;59.50
13585;DHT22;6863;48.402;9.994;2023-07-29T15:20:48;27.50;60.20
13585;DHT22;6863;48.402;9.994;2023-07-29T15:23:14;27.20;61.40
13585;DHT22;6863;48.402;9.994;2023-07-29T15:25:40;26.90;62.50
13585;DHT22;6863;48.402;9.994;2023-07-29T15:28:05;26.60;63.40
13585;DHT22;6863;48.402;9.994;2023-07-29T15:30:31;26.40;64.00
13585;DHT22;6863;48.402;9.994;2023-07-29T15:32:56;26.10;65.10
13585;DHT22;6863;48.402;9.994;2023-07-29T15:35:22;25.90;66.30
13585;DHT22;6863;48.402;9.994;2023-07-29T15:37:48;25.60;67.20
13585;DHT22;6863;48.402;9.994;2023-07-29T15:40:13;25.50;68.70
13585;DHT22;6863;48.402;9.994;2023-07-29T15:42:39;25.40;70.30
13585;DHT22;6863;48.402;9.994;2023-07-29T15:45:08;25.20;72.90
13585;DHT22;6863;48.402;9.994;2023-07-29T15:47:34;25.00;76.00